sensor_id;sensor_type;location;lat;lon;timestamp;P1;durP1;ratioP1;P2;durP2;ratioP2
63699;SDS011;49845;47.130;142.766;2023-09-19T00:02:15;12.63;;;5.80;;
63699;SDS011;49845;47.130;142.766;2023-09-19T00:04:46;10.40;;;5.20;;
63699;SDS011;49845;47.130;142.766;2023-09-19T00:07:17;14.47;;;5.93;;
63699;SDS011;49845;47.130;142.766;2023-09-19T00:09:49;12.90;;;6.07;;
63699;SDS011;49845;47.130;142.766;2023-09-19T00:12:21;9.80;;;5.40;;
63699;SDS011;49845;47.130;142.766;2023-09-19T00:14:52;12.20;;;6.13;;
63699;SDS011;49845;47.130;142.766;2023-09-19T00:17:23;11.33;;;6.00;;
63699;SDS011;49845;47.130;142.766;2023-09-19T00:19:53;14.13;;;7.10;;
63699;SDS011;49845;47.130;142.766;2023-09-19T00:22:24;12.10;;;6.30;;
63699;SDS011;49845;47.130;142.766;2023-09-19T00:24:55;11.40;;;6.03;;
63699;SDS011;49845;47.130;142.766;2023-09-19T00:27:28;13.27;;;5.70;;
63699;SDS011;49845;47.130;142.766;2023-09-19T00:29:59;14.13;;;5.77;;
63699;SDS011;49845;47.130;142.766;2023-09-19T00:32:32;12.30;;;4.80;;
63699;SDS011;49845;47.130;142.766;2023-09-19T00:35:03;10.60;;;4.90;;
63699;SDS011;49845;47.130;142.766;2023-09-19T00:37:35;9.00;;;4.40;;
63699;SDS011;49845;47.130;142.766;2023-09-19T00:40:08;17.40;;;5.60;;
63699;SDS011;49845;47.130;142.766;2023-09-19T00:42:42;15.43;;;5.50;;
63699;SDS011;49845;47.130;142.766;2023-09-19T00:45:13;9.07;;;4.73;;
63699;SDS011;49845;47.130;142.766;2023-09-19T00:47:46;14.23;;;5.50;;
63699;SDS011;49845;47.130;142.766;2023-09-19T00:50:20;17.43;;;5.20;;
63699;SDS011;49845;47.130;142.766;2023-09-19T00:52:54;13.97;;;4.60;;
63699;SDS011;49845;47.130;142.766;2023-09-19T00:55:25;13.27;;;4.20;;
63699;SDS011;49845;47.130;142.766;2023-09-19T00:58:03;17.47;;;4.40;;
63699;SDS011;49845;47.130;142.766;2023-09-19T01:00:35;13.93;;;4.13;;
63699;SDS011;49845;47.130;142.766;2023-09-19T01:03:06;9.97;;;4.17;;
63699;SDS011;49845;47.130;142.766;2023-09-19T01:05:37;15.13;;;4.67;;
63699;SDS011;49845;47.130;142.766;2023-09-19T01:08:08;15.10;;;4.00;;
63699;SDS011;49845;47.130;142.766;2023-09-19T01:10:41;16.13;;;4.30;;
63699;SDS011;49845;47.130;142.766;2023-09-19T01:13:25;14.13;;;4.67;;
63699;SDS011;49845;47.130;142.766;2023-09-19T01:16:03;13.37;;;3.70;;
63699;SDS011;49845;47.130;142.766;2023-09-19T01:18:43;9.57;;;3.70;;
63699;SDS011;49845;47.130;142.766;2023-09-19T01:21:23;10.20;;;3.97;;
63699;SDS011;49845;47.130;142.766;2023-09-19T01:24:07;11.53;;;3.63;;
63699;SDS011;49845;47.130;142.766;2023-09-19T01:29:49;11.90;;;4.03;;
63699;SDS011;49845;47.130;142.766;2023-09-19T01:32:25;13.10;;;3.87;;
63699;SDS011;49845;47.130;142.766;2023-09-19T01:34:56;12.70;;;3.60;;
63699;SDS011;49845;47.130;142.766;2023-09-19T01:37:31;13.47;;;4.00;;
63699;SDS011;49845;47.130;142.766;2023-09-19T01:40:02;15.00;;;3.90;;
63699;SDS011;49845;47.130;142.766;2023-09-19T01:42:45;9.47;;;4.27;;
63699;SDS011;49845;47.130;142.766;2023-09-19T01:45:25;8.57;;;3.93;;
63699;SDS011;49845;47.130;142.766;2023-09-19T01:48:06;11.15;;;4.35;;
63699;SDS011;49845;47.130;142.766;2023-09-19T01:50:49;9.20;;;3.97;;
63699;SDS011;49845;47.130;142.766;2023-09-19T01:53:30;6.87;;;3.63;;
63699;SDS011;49845;47.130;142.766;2023-09-19T01:56:07;7.47;;;3.57;;
63699;SDS011;49845;47.130;142.766;2023-09-19T01:58:42;7.47;;;3.10;;
63699;SDS011;49845;47.130;142.766;2023-09-19T02:01:19;4.53;;;3.27;;
63699;SDS011;49845;47.130;142.766;2023-09-19T02:03:54;6.80;;;3.10;;
63699;SDS011;49845;47.130;142.766;2023-09-19T02:06:25;5.47;;;3.47;;
63699;SDS011;49845;47.130;142.766;2023-09-19T02:08:55;7.37;;;2.90;;
63699;SDS011;49845;47.130;142.766;2023-09-19T02:11:27;8.47;;;3.20;;
63699;SDS011;49845;47.130;142.766;2023-09-19T02:13:58;5.83;;;3.03;;
63699;SDS011;49845;47.130;142.766;2023-09-19T02:16:28;16.03;;;3.70;;
63699;SDS011;49845;47.130;142.766;2023-09-19T02:19:00;6.33;;;3.20;;
63699;SDS011;49845;47.130;142.766;2023-09-19T02:21:33;7.60;;;3.30;;
63699;SDS011;49845;47.130;142.766;2023-09-19T02:24:03;8.83;;;3.33;;
63699;SDS011;49845;47.130;142.766;2023-09-19T02:26:35;8.13;;;3.70;;
63699;SDS011;49845;47.130;142.766;2023-09-19T02:29:05;6.93;;;3.10;;
63699;SDS011;49845;47.130;142.766;2023-09-19T02:31:36;9.70;;;3.70;;
63699;SDS011;49845;47.130;142.766;2023-09-19T02:34:10;11.20;;;3.80;;
63699;SDS011;49845;47.130;142.766;2023-09-19T02:36:41;7.73;;;3.60;;
63699;SDS011;49845;47.130;142.766;2023-09-19T02:39:13;6.83;;;3.30;;
63699;SDS011;49845;47.130;142.766;2023-09-19T02:41:44;5.53;;;3.53;;
63699;SDS011;49845;47.130;142.766;2023-09-19T02:44:15;8.33;;;3.43;;
63699;SDS011;49845;47.130;142.766;2023-09-19T02:46:47;9.50;;;3.60;;
63699;SDS011;49845;47.130;142.766;2023-09-19T02:49:20;9.30;;;3.03;;
63699;SDS011;49845;47.130;142.766;2023-09-19T02:51:51;5.73;;;3.10;;
63699;SDS011;49845;47.130;142.766;2023-09-19T02:54:22;5.87;;;2.80;;
63699;SDS011;49845;47.130;142.766;2023-09-19T02:56:53;7.97;;;2.60;;
63699;SDS011;49845;47.130;142.766;2023-09-19T02:59:23;8.33;;;2.77;;
63699;SDS011;49845;47.130;142.766;2023-09-19T03:01:56;8.17;;;2.67;;
63699;SDS011;49845;47.130;142.766;2023-09-19T03:04:29;5.30;;;2.60;;
63699;SDS011;49845;47.130;142.766;2023-09-19T03:07:01;6.97;;;2.60;;
63699;SDS011;49845;47.130;142.766;2023-09-19T03:09:32;11.20;;;3.10;;
63699;SDS011;49845;47.130;142.766;2023-09-19T03:12:02;5.37;;;2.47;;
63699;SDS011;49845;47.130;142.766;2023-09-19T03:14:34;6.83;;;2.90;;
63699;SDS011;49845;47.130;142.766;2023-09-19T03:17:04;10.07;;;2.90;;
63699;SDS011;49845;47.130;142.766;2023-09-19T03:19:38;7.07;;;2.53;;
63699;SDS011;49845;47.130;142.766;2023-09-19T03:22:09;7.37;;;2.53;;
63699;SDS011;49845;47.130;142.766;2023-09-19T03:24:40;8.73;;;2.33;;
63699;SDS011;49845;47.130;142.766;2023-09-19T03:27:12;5.97;;;2.60;;
63699;SDS011;49845;47.130;142.766;2023-09-19T03:29:44;7.07;;;2.23;;
63699;SDS011;49845;47.130;142.766;2023-09-19T03:32:17;4.60;;;2.10;;
63699;SDS011;49845;47.130;142.766;2023-09-19T03:34:49;5.30;;;2.13;;
63699;SDS011;49845;47.130;142.766;2023-09-19T03:37:20;4.37;;;1.83;;
63699;SDS011;49845;47.130;142.766;2023-09-19T03:39:51;9.63;;;2.33;;
63699;SDS011;49845;47.130;142.766;2023-09-19T03:42:21;4.77;;;2.27;;
63699;SDS011;49845;47.130;142.766;2023-09-19T03:44:54;4.87;;;2.40;;
63699;SDS011;49845;47.130;142.766;2023-09-19T03:47:25;5.23;;;2.37;;
63699;SDS011;49845;47.130;142.766;2023-09-19T03:49:57;4.87;;;2.13;;
63699;SDS011;49845;47.130;142.766;2023-09-19T03:52:28;3.13;;;2.00;;
63699;SDS011;49845;47.130;142.766;2023-09-19T03:54:58;6.67;;;2.57;;
63699;SDS011;49845;47.130;142.766;2023-09-19T03:57:31;5.87;;;3.50;;
63699;SDS011;49845;47.130;142.766;2023-09-19T04:00:04;6.13;;;2.70;;
63699;SDS011;49845;47.130;142.766;2023-09-19T04:02:39;3.50;;;2.70;;
63699;SDS011;49845;47.130;142.766;2023-09-19T04:05:12;2.87;;;2.23;;
63699;SDS011;49845;47.130;142.766;2023-09-19T04:07:43;11.33;;;1.90;;
63699;SDS011;49845;47.130;142.766;2023-09-19T04:10:14;4.13;;;1.40;;
63699;SDS011;49845;47.130;142.766;2023-09-19T04:12:50;4.90;;;1.10;;
63699;SDS011;49845;47.130;142.766;2023-09-19T04:15:22;2.50;;;0.90;;
63699;SDS011;49845;47.130;142.766;2023-09-19T04:17:52;1.83;;;1.00;;
63699;SDS011;49845;47.130;142.766;2023-09-19T04:20:25;4.77;;;1.73;;
63699;SDS011;49845;47.130;142.766;2023-09-19T04:22:55;1.70;;;0.93;;
63699;SDS011;49845;47.130;142.766;2023-09-19T04:25:27;3.00;;;1.10;;
63699;SDS011;49845;47.130;142.766;2023-09-19T04:27:58;3.33;;;0.90;;
63699;SDS011;49845;47.130;142.766;2023-09-19T04:30:28;1.57;;;0.90;;
63699;SDS011;49845;47.130;142.766;2023-09-19T04:32:59;2.53;;;0.80;;
63699;SDS011;49845;47.130;142.766;2023-09-19T04:35:35;3.30;;;0.77;;
63699;SDS011;49845;47.130;142.766;2023-09-19T04:38:11;2.30;;;0.90;;
63699;SDS011;49845;47.130;142.766;2023-09-19T04:40:43;2.10;;;0.70;;
63699;SDS011;49845;47.130;142.766;2023-09-19T04:43:14;1.83;;;0.70;;
63699;SDS011;49845;47.130;142.766;2023-09-19T04:45:44;3.73;;;1.10;;
63699;SDS011;49845;47.130;142.766;2023-09-19T04:48:16;2.10;;;0.80;;
63699;SDS011;49845;47.130;142.766;2023-09-19T04:50:50;1.37;;;0.80;;
63699;SDS011;49845;47.130;142.766;2023-09-19T04:53:21;2.30;;;0.70;;
63699;SDS011;49845;47.130;142.766;2023-09-19T04:55:52;1.83;;;0.80;;
63699;SDS011;49845;47.130;142.766;2023-09-19T04:58:23;5.50;;;1.03;;
63699;SDS011;49845;47.130;142.766;2023-09-19T05:00:53;1.80;;;1.00;;
63699;SDS011;49845;47.130;142.766;2023-09-19T05:03:24;2.97;;;0.80;;
63699;SDS011;49845;47.130;142.766;2023-09-19T05:05:56;3.83;;;1.00;;
63699;SDS011;49845;47.130;142.766;2023-09-19T05:08:27;2.90;;;1.00;;
63699;SDS011;49845;47.130;142.766;2023-09-19T05:10:58;4.90;;;1.00;;
63699;SDS011;49845;47.130;142.766;2023-09-19T05:13:31;10.30;;;2.40;;
63699;SDS011;49845;47.130;142.766;2023-09-19T05:16:01;4.77;;;1.13;;
63699;SDS011;49845;47.130;142.766;2023-09-19T05:18:32;4.17;;;1.63;;
63699;SDS011;49845;47.130;142.766;2023-09-19T05:21:05;4.63;;;1.60;;
63699;SDS011;49845;47.130;142.766;2023-09-19T05:23:35;5.17;;;1.97;;
63699;SDS011;49845;47.130;142.766;2023-09-19T05:26:06;5.93;;;2.10;;
63699;SDS011;49845;47.130;142.766;2023-09-19T05:28:37;3.83;;;2.40;;
63699;SDS011;49845;47.130;142.766;2023-09-19T05:31:08;4.37;;;1.77;;
63699;SDS011;49845;47.130;142.766;2023-09-19T05:33:39;9.37;;;2.50;;
63699;SDS011;49845;47.130;142.766;2023-09-19T05:36:11;3.93;;;2.40;;
63699;SDS011;49845;47.130;142.766;2023-09-19T05:38:43;4.03;;;2.10;;
63699;SDS011;49845;47.130;142.766;2023-09-19T05:41:17;5.63;;;1.97;;
63699;SDS011;49845;47.130;142.766;2023-09-19T05:43:49;6.03;;;2.30;;
63699;SDS011;49845;47.130;142.766;2023-09-19T05:46:19;5.60;;;2.20;;
63699;SDS011;49845;47.130;142.766;2023-09-19T05:48:50;8.70;;;2.43;;
63699;SDS011;49845;47.130;142.766;2023-09-19T05:51:22;6.03;;;2.33;;
63699;SDS011;49845;47.130;142.766;2023-09-19T05:53:56;2.30;;;2.03;;
63699;SDS011;49845;47.130;142.766;2023-09-19T05:56:26;3.70;;;2.23;;
63699;SDS011;49845;47.130;142.766;2023-09-19T05:58:57;4.30;;;2.77;;
63699;SDS011;49845;47.130;142.766;2023-09-19T06:01:28;10.63;;;3.73;;
63699;SDS011;49845;47.130;142.766;2023-09-19T06:04:00;6.27;;;3.10;;
63699;SDS011;49845;47.130;142.766;2023-09-19T06:06:34;3.63;;;3.20;;
63699;SDS011;49845;47.130;142.766;2023-09-19T06:09:06;8.20;;;4.07;;
63699;SDS011;49845;47.130;142.766;2023-09-19T06:11:37;7.23;;;3.60;;
63699;SDS011;49845;47.130;142.766;2023-09-19T06:14:08;7.67;;;4.20;;
63699;SDS011;49845;47.130;142.766;2023-09-19T06:16:39;7.87;;;4.63;;
63699;SDS011;49845;47.130;142.766;2023-09-19T06:19:12;9.10;;;5.30;;
63699;SDS011;49845;47.130;142.766;2023-09-19T06:21:44;11.63;;;5.00;;
63699;SDS011;49845;47.130;142.766;2023-09-19T06:24:17;6.90;;;3.77;;
63699;SDS011;49845;47.130;142.766;2023-09-19T06:26:53;5.67;;;3.77;;
63699;SDS011;49845;47.130;142.766;2023-09-19T06:29:29;5.07;;;3.93;;
63699;SDS011;49845;47.130;142.766;2023-09-19T06:32:01;4.37;;;2.80;;
63699;SDS011;49845;47.130;142.766;2023-09-19T06:34:36;4.33;;;2.90;;
63699;SDS011;49845;47.130;142.766;2023-09-19T06:37:13;2.97;;;2.03;;
63699;SDS011;49845;47.130;142.766;2023-09-19T06:39:43;2.80;;;1.57;;
63699;SDS011;49845;47.130;142.766;2023-09-19T06:42:14;1.77;;;1.30;;
63699;SDS011;49845;47.130;142.766;2023-09-19T06:44:48;1.90;;;1.23;;
63699;SDS011;49845;47.130;142.766;2023-09-19T06:47:18;1.73;;;1.20;;
63699;SDS011;49845;47.130;142.766;2023-09-19T06:49:49;4.30;;;1.13;;
63699;SDS011;49845;47.130;142.766;2023-09-19T06:52:21;1.70;;;1.20;;
63699;SDS011;49845;47.130;142.766;2023-09-19T06:54:53;1.70;;;1.03;;
63699;SDS011;49845;47.130;142.766;2023-09-19T06:57:24;2.43;;;1.30;;
63699;SDS011;49845;47.130;142.766;2023-09-19T06:59:55;2.87;;;1.00;;
63699;SDS011;49845;47.130;142.766;2023-09-19T07:02:26;3.47;;;1.10;;
63699;SDS011;49845;47.130;142.766;2023-09-19T07:04:56;2.53;;;0.90;;
63699;SDS011;49845;47.130;142.766;2023-09-19T07:07:29;2.03;;;0.90;;
63699;SDS011;49845;47.130;142.766;2023-09-19T07:10:03;1.40;;;1.00;;
63699;SDS011;49845;47.130;142.766;2023-09-19T07:12:34;1.30;;;0.80;;
63699;SDS011;49845;47.130;142.766;2023-09-19T07:15:05;1.03;;;0.67;;
63699;SDS011;49845;47.130;142.766;2023-09-19T07:17:36;3.57;;;0.80;;
63699;SDS011;49845;47.130;142.766;2023-09-19T07:20:07;2.10;;;1.10;;
63699;SDS011;49845;47.130;142.766;2023-09-19T07:22:45;1.93;;;1.10;;
63699;SDS011;49845;47.130;142.766;2023-09-19T07:25:18;1.87;;;1.27;;
63699;SDS011;49845;47.130;142.766;2023-09-19T07:27:49;2.03;;;1.60;;
63699;SDS011;49845;47.130;142.766;2023-09-19T07:30:20;3.80;;;1.50;;
63699;SDS011;49845;47.130;142.766;2023-09-19T07:32:51;3.77;;;1.37;;
63699;SDS011;49845;47.130;142.766;2023-09-19T07:35:22;4.20;;;1.40;;
63699;SDS011;49845;47.130;142.766;2023-09-19T07:37:54;2.87;;;1.77;;
63699;SDS011;49845;47.130;142.766;2023-09-19T07:40:26;1.90;;;1.17;;
63699;SDS011;49845;47.130;142.766;2023-09-19T07:42:57;4.13;;;1.27;;
63699;SDS011;49845;47.130;142.766;2023-09-19T07:45:29;3.23;;;1.50;;
63699;SDS011;49845;47.130;142.766;2023-09-19T07:48:00;3.80;;;1.37;;
63699;SDS011;49845;47.130;142.766;2023-09-19T07:50:34;3.07;;;1.43;;
63699;SDS011;49845;47.130;142.766;2023-09-19T07:53:07;3.47;;;1.63;;
63699;SDS011;49845;47.130;142.766;2023-09-19T07:55:40;4.30;;;1.90;;
63699;SDS011;49845;47.130;142.766;2023-09-19T07:58:10;3.83;;;1.87;;
63699;SDS011;49845;47.130;142.766;2023-09-19T08:00:41;3.00;;;1.40;;
63699;SDS011;49845;47.130;142.766;2023-09-19T08:03:12;8.20;;;2.30;;
63699;SDS011;49845;47.130;142.766;2023-09-19T08:05:44;7.63;;;1.93;;
63699;SDS011;49845;47.130;142.766;2023-09-19T08:08:20;4.80;;;1.83;;
63699;SDS011;49845;47.130;142.766;2023-09-19T08:10:54;3.03;;;1.60;;
63699;SDS011;49845;47.130;142.766;2023-09-19T08:13:25;3.00;;;1.50;;
63699;SDS011;49845;47.130;142.766;2023-09-19T08:15:58;4.50;;;1.87;;
63699;SDS011;49845;47.130;142.766;2023-09-19T08:18:32;3.20;;;1.70;;
63699;SDS011;49845;47.130;142.766;2023-09-19T08:21:05;4.27;;;1.70;;
63699;SDS011;49845;47.130;142.766;2023-09-19T08:23:58;4.17;;;2.10;;
63699;SDS011;49845;47.130;142.766;2023-09-19T08:26:29;4.90;;;1.77;;
63699;SDS011;49845;47.130;142.766;2023-09-19T08:29:01;2.80;;;1.97;;
63699;SDS011;49845;47.130;142.766;2023-09-19T08:31:35;3.90;;;1.70;;
63699;SDS011;49845;47.130;142.766;2023-09-19T08:34:06;2.97;;;1.63;;
63699;SDS011;49845;47.130;142.766;2023-09-19T08:36:38;3.77;;;1.97;;
63699;SDS011;49845;47.130;142.766;2023-09-19T08:39:13;4.37;;;2.30;;
63699;SDS011;49845;47.130;142.766;2023-09-19T08:41:45;3.33;;;2.20;;
63699;SDS011;49845;47.130;142.766;2023-09-19T08:44:16;11.70;;;3.97;;
63699;SDS011;49845;47.130;142.766;2023-09-19T08:46:50;8.20;;;4.27;;
63699;SDS011;49845;47.130;142.766;2023-09-19T08:49:51;13.93;;;6.17;;
63699;SDS011;49845;47.130;142.766;2023-09-19T08:52:32;7.33;;;4.50;;
63699;SDS011;49845;47.130;142.766;2023-09-19T08:55:13;8.10;;;3.70;;
63699;SDS011;49845;47.130;142.766;2023-09-19T08:57:49;5.63;;;3.60;;
63699;SDS011;49845;47.130;142.766;2023-09-19T09:00:22;9.73;;;3.80;;
63699;SDS011;49845;47.130;142.766;2023-09-19T09:02:57;5.83;;;3.07;;
63699;SDS011;49845;47.130;142.766;2023-09-19T09:05:32;5.23;;;3.00;;
63699;SDS011;49845;47.130;142.766;2023-09-19T09:08:09;3.77;;;2.57;;
63699;SDS011;49845;47.130;142.766;2023-09-19T09:10:45;7.40;;;2.87;;
63699;SDS011;49845;47.130;142.766;2023-09-19T09:13:17;6.77;;;3.07;;
63699;SDS011;49845;47.130;142.766;2023-09-19T09:15:50;4.83;;;2.50;;
63699;SDS011;49845;47.130;142.766;2023-09-19T09:18:23;5.47;;;2.17;;
63699;SDS011;49845;47.130;142.766;2023-09-19T09:20:54;5.30;;;2.40;;
63699;SDS011;49845;47.130;142.766;2023-09-19T09:23:26;6.73;;;1.87;;
63699;SDS011;49845;47.130;142.766;2023-09-19T09:26:01;2.60;;;1.80;;
63699;SDS011;49845;47.130;142.766;2023-09-19T09:28:34;1.97;;;1.40;;
63699;SDS011;49845;47.130;142.766;2023-09-19T09:31:22;6.57;;;2.43;;
63699;SDS011;49845;47.130;142.766;2023-09-19T09:36:36;3.17;;;1.90;;
63699;SDS011;49845;47.130;142.766;2023-09-19T09:39:09;3.10;;;1.80;;
63699;SDS011;49845;47.130;142.766;2023-09-19T09:41:54;3.40;;;2.27;;
63699;SDS011;49845;47.130;142.766;2023-09-19T09:44:27;5.43;;;2.73;;
63699;SDS011;49845;47.130;142.766;2023-09-19T09:47:01;2.90;;;1.77;;
63699;SDS011;49845;47.130;142.766;2023-09-19T09:49:49;3.95;;;2.08;;
63699;SDS011;49845;47.130;142.766;2023-09-19T09:52:44;5.63;;;1.80;;
63699;SDS011;49845;47.130;142.766;2023-09-19T09:55:16;2.23;;;0.97;;
63699;SDS011;49845;47.130;142.766;2023-09-19T09:57:53;1.70;;;1.00;;
63699;SDS011;49845;47.130;142.766;2023-09-19T10:00:55;3.80;;;1.20;;
63699;SDS011;49845;47.130;142.766;2023-09-19T10:03:33;8.60;;;1.30;;
63699;SDS011;49845;47.130;142.766;2023-09-19T10:06:10;1.70;;;0.70;;
63699;SDS011;49845;47.130;142.766;2023-09-19T10:08:58;8.60;;;0.60;;
63699;SDS011;49845;47.130;142.766;2023-09-19T10:11:43;3.03;;;0.60;;
63699;SDS011;49845;47.130;142.766;2023-09-19T10:14:17;3.63;;;0.93;;
63699;SDS011;49845;47.130;142.766;2023-09-19T10:16:54;4.70;;;0.60;;
63699;SDS011;49845;47.130;142.766;2023-09-19T10:19:34;3.43;;;0.97;;
63699;SDS011;49845;47.130;142.766;2023-09-19T10:22:14;2.13;;;0.60;;
63699;SDS011;49845;47.130;142.766;2023-09-19T10:24:49;1.77;;;0.67;;
63699;SDS011;49845;47.130;142.766;2023-09-19T10:27:29;1.93;;;0.50;;
63699;SDS011;49845;47.130;142.766;2023-09-19T10:30:08;0.93;;;0.63;;
63699;SDS011;49845;47.130;142.766;2023-09-19T10:32:42;2.67;;;0.63;;
63699;SDS011;49845;47.130;142.766;2023-09-19T10:35:16;0.87;;;0.50;;
63699;SDS011;49845;47.130;142.766;2023-09-19T10:37:48;2.23;;;0.50;;
63699;SDS011;49845;47.130;142.766;2023-09-19T10:40:22;0.87;;;0.70;;
63699;SDS011;49845;47.130;142.766;2023-09-19T10:43:00;0.97;;;0.60;;
63699;SDS011;49845;47.130;142.766;2023-09-19T10:45:37;3.47;;;0.70;;
63699;SDS011;49845;47.130;142.766;2023-09-19T10:48:11;0.70;;;0.50;;
63699;SDS011;49845;47.130;142.766;2023-09-19T10:50:48;0.77;;;0.60;;
63699;SDS011;49845;47.130;142.766;2023-09-19T10:53:28;2.50;;;0.90;;
63699;SDS011;49845;47.130;142.766;2023-09-19T10:56:25;1.90;;;0.68;;
63699;SDS011;49845;47.130;142.766;2023-09-19T10:59:10;3.63;;;1.03;;
63699;SDS011;49845;47.130;142.766;2023-09-19T11:01:47;3.90;;;0.90;;
63699;SDS011;49845;47.130;142.766;2023-09-19T11:04:30;3.33;;;1.30;;
63699;SDS011;49845;47.130;142.766;2023-09-19T11:07:22;5.40;;;1.03;;
63699;SDS011;49845;47.130;142.766;2023-09-19T11:10:05;2.07;;;0.90;;
63699;SDS011;49845;47.130;142.766;2023-09-19T11:12:58;3.40;;;1.00;;
63699;SDS011;49845;47.130;142.766;2023-09-19T11:18:54;2.27;;;0.70;;
63699;SDS011;49845;47.130;142.766;2023-09-19T11:21:42;2.77;;;0.80;;
63699;SDS011;49845;47.130;142.766;2023-09-19T11:24:29;1.87;;;0.83;;
63699;SDS011;49845;47.130;142.766;2023-09-19T11:27:11;1.90;;;0.80;;
63699;SDS011;49845;47.130;142.766;2023-09-19T11:29:46;0.67;;;0.60;;
63699;SDS011;49845;47.130;142.766;2023-09-19T11:32:18;0.90;;;0.60;;
63699;SDS011;49845;47.130;142.766;2023-09-19T11:35:39;1.13;;;0.50;;
63699;SDS011;49845;47.130;142.766;2023-09-19T11:41:37;0.63;;;0.50;;
63699;SDS011;49845;47.130;142.766;2023-09-19T11:44:45;0.83;;;0.60;;
63699;SDS011;49845;47.130;142.766;2023-09-19T11:47:27;1.83;;;0.70;;
63699;SDS011;49845;47.130;142.766;2023-09-19T11:50:12;1.30;;;0.63;;
63699;SDS011;49845;47.130;142.766;2023-09-19T11:52:52;3.93;;;1.03;;
63699;SDS011;49845;47.130;142.766;2023-09-19T11:55:24;1.77;;;0.50;;
63699;SDS011;49845;47.130;142.766;2023-09-19T11:58:04;0.60;;;0.50;;
63699;SDS011;49845;47.130;142.766;2023-09-19T12:00:38;2.00;;;0.63;;
63699;SDS011;49845;47.130;142.766;2023-09-19T12:03:11;1.70;;;0.70;;
63699;SDS011;49845;47.130;142.766;2023-09-19T12:17:11;1.17;;;0.80;;
63699;SDS011;49845;47.130;142.766;2023-09-19T12:19:49;2.88;;;0.70;;
63699;SDS011;49845;47.130;142.766;2023-09-19T12:26:29;1.37;;;0.77;;
63699;SDS011;49845;47.130;142.766;2023-09-19T12:29:14;1.10;;;0.80;;
63699;SDS011;49845;47.130;142.766;2023-09-19T12:31:50;0.93;;;0.70;;
63699;SDS011;49845;47.130;142.766;2023-09-19T12:34:27;1.77;;;0.90;;
63699;SDS011;49845;47.130;142.766;2023-09-19T12:37:06;3.47;;;1.70;;
63699;SDS011;49845;47.130;142.766;2023-09-19T12:39:45;4.57;;;1.30;;
63699;SDS011;49845;47.130;142.766;2023-09-19T12:42:19;1.07;;;0.80;;
63699;SDS011;49845;47.130;142.766;2023-09-19T12:44:51;1.57;;;0.80;;
63699;SDS011;49845;47.130;142.766;2023-09-19T12:47:25;1.17;;;0.77;;
63699;SDS011;49845;47.130;142.766;2023-09-19T12:50:26;2.03;;;0.90;;
63699;SDS011;49845;47.130;142.766;2023-09-19T12:53:28;1.33;;;1.00;;
63699;SDS011;49845;47.130;142.766;2023-09-19T12:56:01;2.00;;;0.80;;
63699;SDS011;49845;47.130;142.766;2023-09-19T12:58:36;3.20;;;1.10;;
63699;SDS011;49845;47.130;142.766;2023-09-19T13:01:19;2.27;;;0.83;;
63699;SDS011;49845;47.130;142.766;2023-09-19T13:04:11;1.10;;;1.00;;
63699;SDS011;49845;47.130;142.766;2023-09-19T13:06:55;3.60;;;1.10;;
63699;SDS011;49845;47.130;142.766;2023-09-19T13:09:29;2.20;;;1.10;;
63699;SDS011;49845;47.130;142.766;2023-09-19T13:12:03;1.60;;;0.90;;
63699;SDS011;49845;47.130;142.766;2023-09-19T13:15:07;2.23;;;0.90;;
63699;SDS011;49845;47.130;142.766;2023-09-19T13:17:44;4.37;;;1.17;;
63699;SDS011;49845;47.130;142.766;2023-09-19T13:20:21;3.50;;;1.17;;
63699;SDS011;49845;47.130;142.766;2023-09-19T13:22:58;2.15;;;1.20;;
63699;SDS011;49845;47.130;142.766;2023-09-19T13:25:37;2.03;;;0.93;;
63699;SDS011;49845;47.130;142.766;2023-09-19T13:28:08;5.07;;;1.10;;
63699;SDS011;49845;47.130;142.766;2023-09-19T13:30:42;2.13;;;1.10;;
63699;SDS011;49845;47.130;142.766;2023-09-19T13:33:42;1.97;;;1.10;;
63699;SDS011;49845;47.130;142.766;2023-09-19T13:36:36;4.03;;;1.20;;
63699;SDS011;49845;47.130;142.766;2023-09-19T13:39:08;3.50;;;1.00;;
63699;SDS011;49845;47.130;142.766;2023-09-19T13:41:40;2.47;;;1.00;;
63699;SDS011;49845;47.130;142.766;2023-09-19T13:44:12;4.50;;;1.07;;
63699;SDS011;49845;47.130;142.766;2023-09-19T13:46:45;3.23;;;1.57;;
63699;SDS011;49845;47.130;142.766;2023-09-19T13:49:19;3.50;;;1.20;;
63699;SDS011;49845;47.130;142.766;2023-09-19T13:51:51;2.17;;;1.20;;
63699;SDS011;49845;47.130;142.766;2023-09-19T13:54:30;3.90;;;1.00;;
63699;SDS011;49845;47.130;142.766;2023-09-19T13:57:01;3.03;;;1.20;;
63699;SDS011;49845;47.130;142.766;2023-09-19T13:59:35;4.10;;;1.20;;
63699;SDS011;49845;47.130;142.766;2023-09-19T14:02:14;3.93;;;1.00;;
63699;SDS011;49845;47.130;142.766;2023-09-19T14:05:00;2.97;;;1.00;;
63699;SDS011;49845;47.130;142.766;2023-09-19T14:07:32;2.00;;;0.97;;
63699;SDS011;49845;47.130;142.766;2023-09-19T14:10:06;2.33;;;1.03;;
63699;SDS011;49845;47.130;142.766;2023-09-19T14:12:38;2.70;;;1.30;;
63699;SDS011;49845;47.130;142.766;2023-09-19T14:15:10;2.03;;;1.10;;
63699;SDS011;49845;47.130;142.766;2023-09-19T14:17:41;2.73;;;1.07;;
63699;SDS011;49845;47.130;142.766;2023-09-19T14:20:13;2.70;;;1.47;;
63699;SDS011;49845;47.130;142.766;2023-09-19T14:22:45;4.53;;;1.10;;
63699;SDS011;49845;47.130;142.766;2023-09-19T14:25:22;3.60;;;1.20;;
63699;SDS011;49845;47.130;142.766;2023-09-19T14:27:55;4.60;;;1.30;;
63699;SDS011;49845;47.130;142.766;2023-09-19T14:30:26;2.77;;;1.10;;
63699;SDS011;49845;47.130;142.766;2023-09-19T14:32:58;3.07;;;1.20;;
63699;SDS011;49845;47.130;142.766;2023-09-19T14:35:32;3.53;;;1.50;;
63699;SDS011;49845;47.130;142.766;2023-09-19T14:38:03;6.50;;;1.33;;
63699;SDS011;49845;47.130;142.766;2023-09-19T14:40:35;5.10;;;1.50;;
63699;SDS011;49845;47.130;142.766;2023-09-19T14:43:07;4.83;;;1.40;;
63699;SDS011;49845;47.130;142.766;2023-09-19T14:45:38;3.67;;;1.70;;
63699;SDS011;49845;47.130;142.766;2023-09-19T14:48:09;6.63;;;1.23;;
63699;SDS011;49845;47.130;142.766;2023-09-19T14:50:40;6.73;;;1.43;;
63699;SDS011;49845;47.130;142.766;2023-09-19T14:53:14;2.03;;;1.40;;
63699;SDS011;49845;47.130;142.766;2023-09-19T14:55:48;3.47;;;1.10;;
63699;SDS011;49845;47.130;142.766;2023-09-19T14:58:19;5.03;;;1.33;;
63699;SDS011;49845;47.130;142.766;2023-09-19T15:00:53;6.60;;;1.67;;
63699;SDS011;49845;47.130;142.766;2023-09-19T15:03:34;4.43;;;1.40;;
63699;SDS011;49845;47.130;142.766;2023-09-19T15:06:08;8.20;;;1.97;;
63699;SDS011;49845;47.130;142.766;2023-09-19T15:08:43;7.47;;;1.53;;
63699;SDS011;49845;47.130;142.766;2023-09-19T15:11:24;4.47;;;1.60;;
63699;SDS011;49845;47.130;142.766;2023-09-19T15:13:55;3.13;;;1.60;;
63699;SDS011;49845;47.130;142.766;2023-09-19T15:16:27;4.87;;;1.60;;
63699;SDS011;49845;47.130;142.766;2023-09-19T15:18:58;8.03;;;1.73;;
63699;SDS011;49845;47.130;142.766;2023-09-19T15:21:28;4.47;;;1.50;;
63699;SDS011;49845;47.130;142.766;2023-09-19T15:24:01;5.17;;;1.57;;
63699;SDS011;49845;47.130;142.766;2023-09-19T15:26:34;3.73;;;1.43;;
63699;SDS011;49845;47.130;142.766;2023-09-19T15:29:14;4.40;;;1.40;;
63699;SDS011;49845;47.130;142.766;2023-09-19T15:32:09;3.10;;;1.60;;
63699;SDS011;49845;47.130;142.766;2023-09-19T15:35:49;5.17;;;1.70;;